createdAt,value
2022-09-03T00:00:01.795Z,14.74
2022-09-03T00:02:46.643Z,14.77
2022-09-03T00:05:19.689Z,14.75
2022-09-03T00:08:10.221Z,14.78
2022-09-03T00:10:52.112Z,14.72
2022-09-03T00:13:33.710Z,14.83
2022-09-03T00:16:04.188Z,14.87
2022-09-03T00:18:34.953Z,14.84
2022-09-03T00:21:09.682Z,14.73
2022-09-03T00:23:40.551Z,14.75
2022-09-03T00:26:13.744Z,14.85
2022-09-03T00:28:49.177Z,14.84
2022-09-03T00:31:30.838Z,14.88
2022-09-03T00:34:06.016Z,14.86
2022-09-03T00:36:42.103Z,14.84
2022-09-03T00:39:14.913Z,14.87
2022-09-03T00:42:15.652Z,14.97
2022-09-03T00:45:07.776Z,14.99
2022-09-03T00:48:08.901Z,14.97
2022-09-03T00:50:35.966Z,14.97
2022-09-03T00:53:18.329Z,14.97
2022-09-03T00:55:57.055Z,15.01
2022-09-03T00:58:39.467Z,14.97
2022-09-03T01:01:20.672Z,14.97
2022-09-03T01:03:58.648Z,14.97
2022-09-03T01:06:36.887Z,15.01
2022-09-03T01:09:18.250Z,15.01
2022-09-03T01:12:13.641Z,14.94
2022-09-03T01:14:51.315Z,15.01
2022-09-03T01:17:18.049Z,15.00
2022-09-03T01:19:47.868Z,14.98
2022-09-03T01:22:45.438Z,15.02
2022-09-03T01:25:17.754Z,15.00
2022-09-03T01:28:02.139Z,14.95
2022-09-03T01:30:31.468Z,14.93
2022-09-03T01:33:23.994Z,14.91
2022-09-03T01:36:04.357Z,14.97
2022-09-03T01:38:49.449Z,14.94
2022-09-03T01:41:44.306Z,14.98
2022-09-03T01:44:26.192Z,14.94
2022-09-03T01:47:13.204Z,14.94
2022-09-03T01:49:45.689Z,14.87
2022-09-03T01:52:35.494Z,14.93
2022-09-03T01:55:08.112Z,14.89
2022-09-03T01:58:02.645Z,14.83
2022-09-03T02:00:33.356Z,14.89
2022-09-03T02:03:05.765Z,14.91
2022-09-03T02:05:35.807Z,14.89
2022-09-03T02:08:14.117Z,14.91
2022-09-03T02:10:45.375Z,14.89
2022-09-03T02:13:15.927Z,14.91
2022-09-03T02:15:48.612Z,14.77
2022-09-03T02:18:26.929Z,14.85
2022-09-03T02:20:54.697Z,14.87
2022-09-03T02:23:25.521Z,14.87
2022-09-03T02:26:01.930Z,14.87
2022-09-03T02:28:30.424Z,14.83
2022-09-03T02:30:57.729Z,14.85
2022-09-03T02:33:24.641Z,14.86
2022-09-03T02:35:52.038Z,14.88
2022-09-03T02:38:23.004Z,14.85
2022-09-03T02:40:49.883Z,14.89
2022-09-03T02:43:22.304Z,14.75
2022-09-03T02:45:57.185Z,14.79
2022-09-03T02:48:24.941Z,14.59
2022-09-03T02:50:51.865Z,14.77
2022-09-03T02:53:18.954Z,14.70
2022-09-03T02:55:46.333Z,14.69
2022-09-03T02:58:13.603Z,14.66
2022-09-03T03:00:40.389Z,14.70
2022-09-03T03:03:07.121Z,14.66
2022-09-03T03:05:48.556Z,14.64
2022-09-03T03:08:17.085Z,14.57
2022-09-03T03:10:45.064Z,14.60
2022-09-03T03:13:12.403Z,14.45
2022-09-03T03:15:39.273Z,14.43
2022-09-03T03:18:07.502Z,14.47
2022-09-03T03:20:34.531Z,14.44
2022-09-03T03:23:05.568Z,14.45
2022-09-03T03:25:37.535Z,14.44
2022-09-03T03:28:05.092Z,14.36
2022-09-03T03:30:32.760Z,14.41
2022-09-03T03:33:00.433Z,14.41
2022-09-03T03:35:27.158Z,14.43
2022-09-03T03:37:54.017Z,14.35
2022-09-03T03:40:21.057Z,14.27
2022-09-03T03:42:47.803Z,14.32
2022-09-03T03:45:14.751Z,14.27
2022-09-03T03:47:41.565Z,14.26
2022-09-03T03:50:08.645Z,14.24
2022-09-03T03:52:35.471Z,14.58
2022-09-03T03:55:02.203Z,14.27
2022-09-03T03:57:31.906Z,14.30
2022-09-03T03:59:58.691Z,14.24
2022-09-03T04:02:25.728Z,14.15
2022-09-03T04:04:52.547Z,14.18
2022-09-03T04:07:19.290Z,14.22
2022-09-03T04:09:47.256Z,14.12
2022-09-03T04:12:14.039Z,14.10
2022-09-03T04:14:42.135Z,14.10
2022-09-03T04:17:08.907Z,14.06
2022-09-03T04:19:35.706Z,14.09
2022-09-03T04:22:03.120Z,14.09
2022-09-03T04:24:30.009Z,14.13
2022-09-03T04:26:57.131Z,14.33
2022-09-03T04:29:24.905Z,14.27
2022-09-03T04:32:10.441Z,14.11
2022-09-03T04:34:37.194Z,14.09
2022-09-03T04:37:03.971Z,14.06
2022-09-03T04:39:30.741Z,14.11
2022-09-03T04:41:59.743Z,14.17
2022-09-03T04:44:26.910Z,14.13
2022-09-03T04:46:53.659Z,14.14
2022-09-03T04:49:20.627Z,14.13
2022-09-03T04:51:47.442Z,14.11
2022-09-03T04:54:14.162Z,14.17
2022-09-03T04:56:40.969Z,14.19
2022-09-03T04:59:09.579Z,14.15
2022-09-03T05:01:38.234Z,14.21
2022-09-03T05:04:06.235Z,14.14
2022-09-03T05:06:33.867Z,14.09
2022-09-03T05:09:00.947Z,14.13
2022-09-03T05:11:29.060Z,14.07
2022-09-03T05:13:58.406Z,14.17
2022-09-03T05:16:26.318Z,14.18
2022-09-03T05:18:55.018Z,14.29
2022-09-03T05:21:23.002Z,14.37
2022-09-03T05:23:51.257Z,14.32
2022-09-03T05:26:26.780Z,14.40
2022-09-03T05:28:59.692Z,14.57
2022-09-03T05:31:31.501Z,14.70
2022-09-03T05:34:00.453Z,14.68
2022-09-03T05:36:31.526Z,14.88
2022-09-03T05:38:59.103Z,15.06
2022-09-03T05:41:27.631Z,15.09
2022-09-03T05:43:56.182Z,15.12
2022-09-03T05:46:32.286Z,15.14
2022-09-03T05:49:04.880Z,15.08
2022-09-03T05:51:33.229Z,15.16
2022-09-03T05:54:00.331Z,15.25
2022-09-03T05:56:28.950Z,15.24
2022-09-03T05:58:59.160Z,15.29
2022-09-03T06:01:31.180Z,15.23
2022-09-03T06:04:00.609Z,15.23
2022-09-03T06:06:30.434Z,15.32
2022-09-03T06:08:59.430Z,15.41
2022-09-03T06:11:29.405Z,15.54
2022-09-03T06:14:05.194Z,15.51
2022-09-03T06:16:33.870Z,15.49
2022-09-03T06:19:00.982Z,15.65
2022-09-03T06:21:28.897Z,15.67
2022-09-03T06:23:58.480Z,15.74
2022-09-03T06:26:28.581Z,15.78
2022-09-03T06:28:56.310Z,15.71
2022-09-03T06:31:23.435Z,15.88
2022-09-03T06:33:50.401Z,15.84
2022-09-03T06:36:18.720Z,15.95
2022-09-03T06:38:46.333Z,16.00
2022-09-03T06:41:25.038Z,15.92
2022-09-03T06:43:54.304Z,15.99
2022-09-03T06:46:23.080Z,16.18
2022-09-03T06:48:52.123Z,16.32
2022-09-03T06:51:27.532Z,16.86
2022-09-03T06:53:59.457Z,17.17
2022-09-03T06:56:27.082Z,17.51
2022-09-03T06:58:58.120Z,17.60
2022-09-03T07:01:28.414Z,17.69
2022-09-03T07:03:57.603Z,17.78
2022-09-03T07:06:33.051Z,17.54
2022-09-03T07:09:00.499Z,17.33
2022-09-03T07:11:30.972Z,17.32
2022-09-03T07:13:58.747Z,17.02
2022-09-03T07:16:31.085Z,17.06
2022-09-03T07:18:57.924Z,17.20
2022-09-03T07:21:29.783Z,17.14
2022-09-03T07:23:57.269Z,17.23
2022-09-03T07:26:30.479Z,17.23
2022-09-03T07:28:58.453Z,17.10
2022-09-03T07:31:28.854Z,16.99
2022-09-03T07:34:01.492Z,17.10
2022-09-03T07:36:29.528Z,17.06
2022-09-03T07:39:02.324Z,17.22
2022-09-03T07:41:29.305Z,17.13
2022-09-03T07:43:57.240Z,17.47
2022-09-03T07:46:27.310Z,17.59
2022-09-03T07:48:58.508Z,17.67
2022-09-03T07:51:28.393Z,17.90
2022-09-03T07:53:57.824Z,18.00
2022-09-03T07:56:26.512Z,17.92
2022-09-03T07:58:55.476Z,18.08
2022-09-03T08:01:23.717Z,17.75
2022-09-03T08:03:53.474Z,17.55
2022-09-03T08:06:24.051Z,17.66
2022-09-03T08:09:04.601Z,17.77
2022-09-03T08:11:36.115Z,18.04
2022-09-03T08:14:06.490Z,17.97
2022-09-03T08:16:39.450Z,18.12
2022-09-03T08:19:07.558Z,18.35
2022-09-03T08:21:34.659Z,18.44
2022-09-03T08:24:04.198Z,18.42
2022-09-03T08:26:33.210Z,18.41
2022-09-03T08:29:06.959Z,18.49
2022-09-03T08:31:35.112Z,18.63
2022-09-03T08:34:06.328Z,18.77
2022-09-03T08:36:35.587Z,18.79
2022-09-03T08:39:04.773Z,18.84
2022-09-03T08:41:55.082Z,19.20
2022-09-03T08:44:48.703Z,19.30
2022-09-03T08:47:27.159Z,19.53
2022-09-03T08:50:13.178Z,19.81
2022-09-03T08:52:49.390Z,19.89
2022-09-03T08:55:25.137Z,20.32
2022-09-03T08:58:22.192Z,20.51
2022-09-03T09:01:04.391Z,21.11
2022-09-03T09:03:56.946Z,21.57
2022-09-03T09:06:46.986Z,21.87
2022-09-03T09:09:35.745Z,22.26
2022-09-03T09:12:21.576Z,22.69
2022-09-03T09:15:02.730Z,22.49
2022-09-03T09:17:54.307Z,22.46
2022-09-03T09:20:36.108Z,22.85
2022-09-03T09:23:09.257Z,22.76
2022-09-03T09:25:47.712Z,23.16
2022-09-03T09:28:22.388Z,23.57
2022-09-03T09:30:52.290Z,24.14
2022-09-03T09:33:20.852Z,24.48
2022-09-03T09:35:48.307Z,24.58
2022-09-03T09:38:16.370Z,24.20
2022-09-03T09:40:45.622Z,24.68
2022-09-03T09:43:20.707Z,24.55
2022-09-03T09:45:53.292Z,25.08
2022-09-03T09:48:31.387Z,24.91
2022-09-03T09:51:07.307Z,25.36
2022-09-03T09:53:35.081Z,25.57
2022-09-03T09:56:05.295Z,25.82
2022-09-03T09:58:34.504Z,25.84
2022-09-03T10:01:15.343Z,25.59
2022-09-03T10:03:55.463Z,26.01
2022-09-03T10:06:49.471Z,26.16
2022-09-03T10:09:19.459Z,26.51
2022-09-03T10:12:06.845Z,26.26
2022-09-03T10:14:47.709Z,26.17
2022-09-03T10:17:30.094Z,26.23
2022-09-03T10:20:29.877Z,26.47
2022-09-03T10:23:11.947Z,26.92
2022-09-03T10:26:00.601Z,27.24
2022-09-03T10:28:30.319Z,26.85
2022-09-03T10:31:30.072Z,26.93
2022-09-03T10:34:00.197Z,26.92
2022-09-03T10:36:40.136Z,26.55
2022-09-03T10:39:32.524Z,26.61
2022-09-03T10:42:16.787Z,27.12
2022-09-03T10:45:00.912Z,26.92
2022-09-03T10:47:32.672Z,26.65
2022-09-03T10:50:16.041Z,27.31
2022-09-03T10:53:00.952Z,26.38
2022-09-03T10:55:37.192Z,25.92
2022-09-03T10:58:23.559Z,26.71
2022-09-03T11:01:03.799Z,26.70
2022-09-03T11:03:46.978Z,25.91
2022-09-03T11:06:20.712Z,26.32
2022-09-03T11:08:54.490Z,27.24
2022-09-03T11:11:56.763Z,27.40
2022-09-03T11:14:35.922Z,27.06
2022-09-03T11:17:09.952Z,26.52
2022-09-03T11:19:48.237Z,25.21
2022-09-03T11:22:20.813Z,26.52
2022-09-03T11:24:58.494Z,27.38
2022-09-03T11:27:51.440Z,26.28
2022-09-03T11:30:39.534Z,26.28
2022-09-03T11:33:11.708Z,26.81
2022-09-03T11:35:41.952Z,26.32
2022-09-03T11:38:14.895Z,26.39
2022-09-03T11:41:00.191Z,26.60
2022-09-03T11:43:30.333Z,26.55
2022-09-03T11:46:14.847Z,26.94
2022-09-03T11:48:46.438Z,26.89
2022-09-03T11:51:41.851Z,27.63
2022-09-03T11:54:21.036Z,27.93
2022-09-03T11:56:50.685Z,27.37
2022-09-03T11:59:17.614Z,26.75
2022-09-03T12:02:02.166Z,27.15
2022-09-03T12:04:45.810Z,27.39
2022-09-03T12:07:43.361Z,27.56
2022-09-03T12:10:24.861Z,27.22
2022-09-03T12:13:24.361Z,26.91
2022-09-03T12:16:08.442Z,25.48
2022-09-03T12:18:37.073Z,26.16
2022-09-03T12:21:08.957Z,25.43
2022-09-03T12:23:49.261Z,25.37
2022-09-03T12:26:23.774Z,25.32
2022-09-03T12:28:57.208Z,26.36
2022-09-03T12:31:29.519Z,25.77
2022-09-03T12:33:59.232Z,26.10
2022-09-03T12:36:36.741Z,25.88
2022-09-03T12:39:14.055Z,25.60
2022-09-03T12:42:12.585Z,25.73
2022-09-03T12:44:42.168Z,25.46
2022-09-03T12:47:36.445Z,26.37
2022-09-03T12:50:20.305Z,25.81
2022-09-03T12:52:53.739Z,26.20
2022-09-03T12:55:36.674Z,26.35
2022-09-03T12:58:17.049Z,26.24
2022-09-03T13:01:11.522Z,24.82
2022-09-03T13:03:47.982Z,24.42
2022-09-03T13:06:19.807Z,24.62
2022-09-03T13:08:54.988Z,24.98
2022-09-03T13:11:23.116Z,25.92
2022-09-03T13:14:11.613Z,26.35
2022-09-03T13:16:38.374Z,26.79
2022-09-03T13:19:23.858Z,26.72
2022-09-03T13:22:01.739Z,25.91
2022-09-03T13:24:47.348Z,25.09
2022-09-03T13:27:42.141Z,24.20
2022-09-03T13:30:17.119Z,24.63
2022-09-03T13:32:53.173Z,25.24
2022-09-03T13:35:28.847Z,26.11
2022-09-03T13:38:04.415Z,26.51
2022-09-03T13:40:52.331Z,27.00
2022-09-03T13:43:37.166Z,27.17
2022-09-03T13:46:12.400Z,25.69
2022-09-03T13:49:00.430Z,25.03
2022-09-03T13:51:43.615Z,24.75
2022-09-03T13:54:48.276Z,25.58
2022-09-03T13:57:17.652Z,25.30
2022-09-03T13:59:55.445Z,25.36
2022-09-03T14:02:44.951Z,24.58
2022-09-03T14:05:30.426Z,23.85
2022-09-03T14:08:24.118Z,25.44
2022-09-03T14:11:13.094Z,25.62
2022-09-03T14:14:22.071Z,24.99
2022-09-03T14:16:58.052Z,24.66
2022-09-03T14:19:49.561Z,24.06
2022-09-03T14:22:24.602Z,23.97
2022-09-03T14:25:03.056Z,23.62
2022-09-03T14:27:32.268Z,24.20
2022-09-03T14:30:01.841Z,25.01
2022-09-03T14:32:55.455Z,25.33
2022-09-03T14:35:31.319Z,24.43
2022-09-03T14:38:27.433Z,23.84
2022-09-03T14:41:12.952Z,23.16
2022-09-03T14:44:13.775Z,22.90
2022-09-03T14:46:55.892Z,22.62
2022-09-03T14:49:52.983Z,22.84
2022-09-03T14:52:28.620Z,22.88
2022-09-03T14:55:25.793Z,22.54
2022-09-03T14:58:04.766Z,22.40
2022-09-03T15:00:32.011Z,22.21
2022-09-03T15:03:17.548Z,21.89
2022-09-03T15:06:07.191Z,21.80
2022-09-03T15:08:50.470Z,21.73
2022-09-03T15:11:33.722Z,21.89
2022-09-03T15:14:00.438Z,21.53
2022-09-03T15:16:51.830Z,21.47
2022-09-03T15:19:43.736Z,21.31
2022-09-03T15:22:44.763Z,21.29
2022-09-03T15:25:27.602Z,21.72
2022-09-03T15:28:11.822Z,22.13
2022-09-03T15:30:48.721Z,21.62
2022-09-03T15:33:28.542Z,21.15
2022-09-03T15:36:17.720Z,21.07
2022-09-03T15:39:02.363Z,20.94
2022-09-03T15:41:48.638Z,20.77
2022-09-03T15:44:21.402Z,21.31
2022-09-03T15:47:05.288Z,21.84
2022-09-03T15:50:12.100Z,22.63
2022-09-03T15:52:54.143Z,22.39
2022-09-03T15:55:40.309Z,21.74
2022-09-03T15:58:33.026Z,21.51
2022-09-03T16:01:27.074Z,21.44
2022-09-03T16:03:56.086Z,21.39
2022-09-03T16:06:44.205Z,21.04
2022-09-03T16:09:26.367Z,21.04
2022-09-03T16:11:59.137Z,20.90
2022-09-03T16:14:38.407Z,20.61
2022-09-03T16:17:27.033Z,20.54
2022-09-03T16:20:19.023Z,20.33
2022-09-03T16:23:10.298Z,20.25
2022-09-03T16:25:50.674Z,20.11
2022-09-03T16:28:24.739Z,20.34
2022-09-03T16:30:58.651Z,20.47
2022-09-03T16:33:44.731Z,20.60
2022-09-03T16:36:11.544Z,20.84
2022-09-03T16:39:01.850Z,21.02
2022-09-03T16:41:44.077Z,20.96
2022-09-03T16:44:41.766Z,21.10
2022-09-03T16:47:26.693Z,21.11
2022-09-03T16:50:13.555Z,21.29
2022-09-03T16:52:59.244Z,21.06
2022-09-03T16:55:51.050Z,20.81
2022-09-03T16:58:22.017Z,20.66
2022-09-03T17:01:07.523Z,20.32
2022-09-03T17:03:59.060Z,20.00
2022-09-03T17:06:42.228Z,19.92
2022-09-03T17:09:27.845Z,19.73
2022-09-03T17:12:20.645Z,19.50
2022-09-03T17:15:09.096Z,19.41
2022-09-03T17:17:48.720Z,19.56
2022-09-03T17:20:29.597Z,19.24
2022-09-03T17:23:26.324Z,19.28
2022-09-03T17:26:01.789Z,19.26
2022-09-03T17:28:59.100Z,19.14
2022-09-03T17:31:39.176Z,19.08
2022-09-03T17:34:33.668Z,18.98
2022-09-03T17:37:41.010Z,18.69
2022-09-03T17:40:16.805Z,18.71
2022-09-03T17:43:11.893Z,18.62
2022-09-03T17:46:05.773Z,18.56
2022-09-03T17:48:38.837Z,18.47
2022-09-03T17:51:31.801Z,18.54
2022-09-03T17:54:17.702Z,18.47
2022-09-03T17:57:05.434Z,18.32
2022-09-03T17:59:47.125Z,18.23
2022-09-03T18:02:23.914Z,18.28
2022-09-03T18:04:59.742Z,18.26
2022-09-03T18:08:07.201Z,18.18
2022-09-03T18:10:36.985Z,18.04
2022-09-03T18:13:16.324Z,17.98
2022-09-03T18:16:09.694Z,17.94
2022-09-03T18:18:43.479Z,17.91
2022-09-03T18:21:32.245Z,17.77
2022-09-03T18:24:20.747Z,17.74
2022-09-03T18:27:16.571Z,17.78
2022-09-03T18:30:13.646Z,17.79
2022-09-03T18:32:58.969Z,17.72
2022-09-03T18:35:48.286Z,17.58
2022-09-03T18:38:36.513Z,17.68
2022-09-03T18:41:34.859Z,17.65
2022-09-03T18:45:18.314Z,17.66
2022-09-03T18:48:25.348Z,17.55
2022-09-03T18:51:32.014Z,17.54
2022-09-03T18:55:03.972Z,17.58
2022-09-03T18:58:02.714Z,17.47
2022-09-03T19:00:51.021Z,17.48
2022-09-03T19:04:11.129Z,17.39
2022-09-03T19:07:21.026Z,17.41
2022-09-03T19:10:29.699Z,17.37
2022-09-03T19:13:39.750Z,17.32
2022-09-03T19:16:32.434Z,17.24
2022-09-03T19:19:33.268Z,17.35
2022-09-03T19:22:27.655Z,17.29
2022-09-03T19:25:33.738Z,17.26
2022-09-03T19:28:38.470Z,17.16
2022-09-03T19:31:42.858Z,17.21
2022-09-03T19:34:40.396Z,17.14
2022-09-03T19:37:42.107Z,17.24
2022-09-03T19:40:49.372Z,17.16
2022-09-03T19:43:53.354Z,17.17
2022-09-03T19:46:58.471Z,17.08
2022-09-03T19:50:25.438Z,17.28
2022-09-03T19:53:13.772Z,17.14
2022-09-03T19:56:21.421Z,17.15
2022-09-03T19:59:21.389Z,17.13
2022-09-03T20:02:07.247Z,17.10
2022-09-03T20:05:06.695Z,17.16
2022-09-03T20:07:53.807Z,17.08
2022-09-03T20:10:23.804Z,17.03
2022-09-03T20:13:02.462Z,17.11
2022-09-03T20:16:06.693Z,17.07
2022-09-03T20:18:59.165Z,17.07
2022-09-03T20:21:47.262Z,17.11
2022-09-03T20:24:34.107Z,17.08
2022-09-03T20:27:13.099Z,17.11
2022-09-03T20:29:45.835Z,17.07
2022-09-03T20:32:48.725Z,17.02
2022-09-03T20:35:52.488Z,17.10
2022-09-03T20:38:38.807Z,17.11
2022-09-03T20:41:29.018Z,17.04
2022-09-03T20:44:06.000Z,17.05
2022-09-03T20:46:45.638Z,17.07
2022-09-03T20:49:21.887Z,17.15
2022-09-03T20:52:07.502Z,17.07
2022-09-03T20:54:47.288Z,17.11
2022-09-03T20:57:24.115Z,17.06
2022-09-03T20:59:59.959Z,17.00
2022-09-03T21:02:52.529Z,17.09
2022-09-03T21:05:26.937Z,17.07
2022-09-03T21:08:12.963Z,17.10
2022-09-03T21:10:48.552Z,17.06
2022-09-03T21:13:50.528Z,17.06
2022-09-03T21:16:23.549Z,16.96
2022-09-03T21:19:05.247Z,16.96
2022-09-03T21:21:39.666Z,17.02
2022-09-03T21:24:14.628Z,16.94
2022-09-03T21:26:46.190Z,17.03
2022-09-03T21:29:30.751Z,17.02
2022-09-03T21:32:29.677Z,17.07
2022-09-03T21:35:06.808Z,17.07
2022-09-03T21:37:39.544Z,17.03
2022-09-03T21:40:09.380Z,17.05
2022-09-03T21:42:44.155Z,17.10
2022-09-03T21:45:29.530Z,17.03
2022-09-03T21:48:03.789Z,16.99
2022-09-03T21:50:46.133Z,16.99
2022-09-03T21:53:33.175Z,17.02
2022-09-03T21:56:27.917Z,17.01
2022-09-03T21:59:08.339Z,17.03
2022-09-03T22:01:43.245Z,17.05
2022-09-03T22:04:10.012Z,17.04
2022-09-03T22:07:30.867Z,17.04
2022-09-03T22:10:03.452Z,17.03
2022-09-03T22:12:36.387Z,17.01
2022-09-03T22:15:11.425Z,16.96
2022-09-03T22:18:03.270Z,16.91
2022-09-03T22:20:30.152Z,16.88
2022-09-03T22:23:09.899Z,16.88
2022-09-03T22:26:00.564Z,16.90
2022-09-03T22:28:37.873Z,16.85
2022-09-03T22:31:20.019Z,16.89
2022-09-03T22:34:05.455Z,16.87
2022-09-03T22:36:40.179Z,16.88
2022-09-03T22:39:30.240Z,16.90
2022-09-03T22:42:10.228Z,16.87
2022-09-03T22:44:55.527Z,16.80
2022-09-03T22:47:43.942Z,16.81
2022-09-03T22:50:38.714Z,16.79
2022-09-03T22:53:17.385Z,16.80
2022-09-03T22:55:59.669Z,16.81
2022-09-03T22:58:31.085Z,16.78
2022-09-03T23:01:05.645Z,16.78
2022-09-03T23:03:42.192Z,16.75
2022-09-03T23:06:32.430Z,16.67
2022-09-03T23:09:08.968Z,16.69
2022-09-03T23:11:50.145Z,16.63
2022-09-03T23:14:22.675Z,16.62
2022-09-03T23:16:53.277Z,16.59
2022-09-03T23:19:35.522Z,16.66
2022-09-03T23:22:10.883Z,16.62
2022-09-03T23:24:49.691Z,16.51
2022-09-03T23:27:20.616Z,16.51
2022-09-03T23:29:54.549Z,16.56
2022-09-03T23:32:22.422Z,16.51
2022-09-03T23:34:49.533Z,16.52
2022-09-03T23:37:34.315Z,16.46
2022-09-03T23:40:01.821Z,16.43
2022-09-03T23:42:29.683Z,16.39
2022-09-03T23:45:22.105Z,16.40
2022-09-03T23:48:33.915Z,16.41
2022-09-03T23:51:42.067Z,16.26
2022-09-03T23:54:19.428Z,16.25
2022-09-03T23:57:04.427Z,16.16
